createdAt,value
2023-01-21T00:02:24.269Z,4.97
2023-01-21T00:05:24.591Z,5.70
2023-01-21T00:15:01.089Z,6.53
2023-01-21T00:20:29.694Z,6.85
2023-01-21T00:23:02.972Z,8.82
2023-01-21T00:25:38.051Z,9.30
2023-01-21T00:28:12.295Z,9.10
2023-01-21T00:30:43.840Z,13.50
2023-01-21T00:33:14.753Z,12.25
2023-01-21T00:35:44.809Z,10.05
2023-01-21T00:38:21.612Z,12.43
2023-01-21T00:40:53.018Z,10.32
2023-01-21T00:43:24.470Z,9.20
2023-01-21T00:45:56.054Z,7.18
2023-01-21T00:48:30.067Z,9.38
2023-01-21T00:51:02.136Z,9.60
2023-01-21T00:53:35.793Z,8.88
2023-01-21T00:56:12.314Z,8.85
2023-01-21T00:58:44.902Z,8.70
2023-01-21T01:01:18.897Z,9.40
2023-01-21T01:03:51.767Z,11.43
2023-01-21T01:06:25.737Z,8.95
2023-01-21T01:08:59.900Z,9.95
2023-01-21T01:11:32.641Z,7.13
2023-01-21T01:14:03.001Z,6.40
2023-01-21T01:16:36.124Z,8.10
2023-01-21T01:19:08.454Z,9.20
2023-01-21T01:21:42.665Z,8.95
2023-01-21T01:24:14.813Z,7.25
2023-01-21T01:26:48.012Z,5.95
2023-01-21T01:29:19.732Z,4.80
2023-01-21T01:31:51.193Z,5.00
2023-01-21T01:34:21.611Z,4.43
2023-01-21T01:36:52.457Z,3.85
2023-01-21T01:39:23.158Z,3.08
2023-01-21T01:41:53.211Z,1.90
2023-01-21T01:44:51.143Z,2.53
2023-01-21T01:47:24.614Z,2.38
2023-01-21T01:49:55.310Z,2.60
2023-01-21T01:52:27.225Z,2.03
2023-01-21T01:55:03.145Z,1.95
2023-01-21T01:57:42.001Z,1.60
2023-01-21T02:00:13.984Z,1.98
2023-01-21T02:03:06.142Z,2.40
2023-01-21T02:05:38.345Z,4.47
2023-01-21T02:08:10.530Z,4.97
2023-01-21T02:10:42.347Z,3.72
2023-01-21T02:13:14.826Z,4.00
2023-01-21T02:16:06.987Z,3.95
2023-01-21T02:19:07.262Z,5.00
2023-01-21T02:22:11.055Z,6.82
2023-01-21T02:25:22.995Z,14.85
2023-01-21T02:28:24.945Z,11.13
2023-01-21T02:31:15.220Z,12.10
2023-01-21T02:34:02.057Z,10.93
2023-01-21T02:36:57.387Z,11.20
2023-01-21T02:39:40.923Z,10.95
2023-01-21T02:42:59.751Z,9.45
2023-01-21T02:45:46.239Z,11.70
2023-01-21T02:48:23.253Z,10.70
2023-01-21T02:50:56.245Z,9.40
2023-01-21T02:53:30.885Z,10.35
2023-01-21T02:56:27.270Z,9.82
2023-01-21T02:59:04.712Z,9.23
2023-01-21T03:02:12.870Z,9.20
2023-01-21T03:04:51.848Z,8.73
2023-01-21T03:07:38.764Z,9.60
2023-01-21T03:10:16.884Z,9.65
2023-01-21T03:13:48.089Z,9.23
2023-01-21T03:16:42.331Z,9.07
2023-01-21T03:19:15.387Z,10.35
2023-01-21T03:21:46.915Z,9.57
2023-01-21T03:24:17.477Z,8.80
2023-01-21T03:26:51.976Z,7.88
2023-01-21T03:29:27.393Z,8.75
2023-01-21T03:32:06.109Z,8.68
2023-01-21T03:34:42.805Z,8.52
2023-01-21T03:37:49.318Z,10.93
2023-01-21T03:40:32.711Z,10.75
2023-01-21T03:43:05.309Z,10.85
2023-01-21T03:45:43.741Z,9.77
2023-01-21T03:48:50.198Z,10.55
2023-01-21T03:51:40.266Z,10.10
2023-01-21T03:54:10.765Z,10.73
2023-01-21T03:56:41.075Z,9.45
2023-01-21T03:59:18.408Z,10.88
2023-01-21T04:01:52.711Z,10.85
2023-01-21T04:04:33.475Z,12.07
2023-01-21T04:07:10.509Z,12.25
2023-01-21T04:09:41.046Z,12.82
2023-01-21T04:12:13.229Z,14.20
2023-01-21T04:14:44.855Z,13.90
2023-01-21T04:17:15.772Z,11.45
2023-01-21T04:19:47.583Z,13.75
2023-01-21T04:22:18.809Z,12.73
2023-01-21T04:24:51.748Z,16.70
2023-01-21T04:27:21.957Z,18.50
2023-01-21T04:29:53.218Z,20.50
2023-01-21T04:32:24.591Z,23.65
2023-01-21T04:34:56.230Z,20.65
2023-01-21T04:37:28.070Z,19.70
2023-01-21T04:39:58.377Z,18.27
2023-01-21T04:42:28.483Z,18.48
2023-01-21T04:44:58.899Z,15.35
2023-01-21T04:47:29.685Z,13.13
2023-01-21T04:50:00.029Z,13.90
2023-01-21T04:52:31.002Z,18.67
2023-01-21T04:55:01.637Z,18.30
2023-01-21T04:57:31.671Z,13.38
2023-01-21T05:00:03.076Z,7.80
2023-01-21T05:02:36.582Z,4.35
2023-01-21T05:05:07.480Z,2.88
2023-01-21T05:07:37.696Z,2.80
2023-01-21T05:10:09.239Z,2.17
2023-01-21T05:12:40.193Z,2.60
2023-01-21T05:15:11.175Z,2.70
2023-01-21T05:17:41.431Z,2.20
2023-01-21T05:20:14.397Z,2.45
2023-01-21T05:22:51.456Z,2.42
2023-01-21T05:25:21.956Z,2.22
2023-01-21T05:27:56.478Z,2.38
2023-01-21T05:30:32.025Z,2.30
2023-01-21T05:33:03.242Z,2.20
2023-01-21T05:35:36.743Z,2.90
2023-01-21T05:38:07.523Z,2.85
2023-01-21T05:40:40.290Z,2.83
2023-01-21T05:43:11.751Z,2.72
2023-01-21T05:45:43.165Z,2.97
2023-01-21T05:48:15.287Z,2.92
2023-01-21T05:50:45.847Z,2.72
2023-01-21T05:53:17.647Z,3.58
2023-01-21T05:55:48.600Z,4.88
2023-01-21T05:58:20.889Z,11.95
2023-01-21T06:00:52.663Z,14.68
2023-01-21T06:03:23.641Z,16.27
2023-01-21T06:05:54.450Z,14.63
2023-01-21T06:08:25.600Z,18.73
2023-01-21T06:10:58.214Z,15.55
2023-01-21T06:13:28.664Z,21.85
2023-01-21T06:16:02.151Z,19.33
2023-01-21T06:18:33.784Z,15.98
2023-01-21T06:21:05.759Z,13.00
2023-01-21T06:23:36.618Z,11.20
2023-01-21T06:26:08.340Z,11.05
2023-01-21T06:28:40.425Z,10.80
2023-01-21T06:31:11.559Z,11.23
2023-01-21T06:33:43.417Z,13.57
2023-01-21T06:36:22.720Z,10.20
2023-01-21T06:38:53.996Z,12.02
2023-01-21T06:41:25.484Z,12.70
2023-01-21T06:43:59.662Z,9.68
2023-01-21T06:46:31.502Z,9.25
2023-01-21T06:51:37.223Z,13.02
2023-01-21T06:54:08.525Z,13.13
2023-01-21T06:56:38.871Z,11.88
2023-01-21T06:59:09.701Z,11.90
2023-01-21T07:01:39.740Z,10.93
2023-01-21T07:04:35.783Z,12.25
2023-01-21T07:07:07.494Z,15.88
2023-01-21T07:09:38.502Z,18.67
2023-01-21T07:12:12.699Z,14.80
2023-01-21T07:14:43.435Z,14.35
2023-01-21T07:17:14.046Z,14.50
2023-01-21T07:19:45.252Z,14.23
2023-01-21T07:22:16.554Z,13.52
2023-01-21T07:24:47.017Z,13.52
2023-01-21T07:27:17.603Z,16.35
2023-01-21T07:30:19.070Z,14.10
2023-01-21T07:32:49.563Z,11.10
2023-01-21T07:35:46.854Z,11.48
2023-01-21T07:38:18.012Z,10.35
2023-01-21T07:40:53.461Z,9.98
2023-01-21T07:43:23.795Z,10.13
2023-01-21T07:45:53.851Z,9.38
2023-01-21T07:48:24.950Z,8.95
2023-01-21T07:51:00.014Z,8.20
2023-01-21T07:53:30.301Z,7.22
2023-01-21T07:56:03.713Z,6.60
2023-01-21T07:58:43.394Z,6.78
2023-01-21T08:01:14.106Z,6.57
2023-01-21T08:03:44.859Z,6.68
2023-01-21T08:06:14.943Z,6.03
2023-01-21T08:08:46.533Z,6.28
2023-01-21T08:11:16.771Z,6.85
2023-01-21T08:13:47.356Z,6.20
2023-01-21T08:16:17.627Z,5.97
2023-01-21T08:18:48.901Z,7.70
2023-01-21T08:21:20.578Z,6.60
2023-01-21T08:23:50.804Z,6.60
2023-01-21T08:26:20.823Z,5.45
2023-01-21T08:28:51.458Z,5.53
2023-01-21T08:31:21.524Z,12.60
2023-01-21T08:33:51.820Z,18.92
2023-01-21T08:36:23.480Z,18.85
2023-01-21T08:39:00.473Z,15.18
2023-01-21T08:41:31.492Z,16.58
2023-01-21T08:44:01.621Z,18.85
2023-01-21T08:46:31.653Z,20.42
2023-01-21T08:49:02.498Z,19.48
2023-01-21T08:51:34.326Z,21.13
2023-01-21T08:54:04.696Z,19.63
2023-01-21T08:56:35.449Z,18.45
2023-01-21T08:59:07.087Z,15.98
2023-01-21T09:01:43.153Z,13.93
2023-01-21T09:04:13.576Z,13.68
2023-01-21T09:06:43.930Z,12.02
2023-01-21T09:09:14.360Z,14.93
2023-01-21T09:11:45.577Z,16.50
2023-01-21T09:14:17.479Z,15.75
2023-01-21T09:16:51.808Z,14.18
2023-01-21T09:19:23.253Z,11.52
2023-01-21T09:21:57.886Z,16.42
2023-01-21T09:24:28.428Z,22.02
2023-01-21T09:26:59.329Z,20.00
2023-01-21T09:29:30.782Z,15.23
2023-01-21T09:32:02.070Z,16.38
2023-01-21T09:34:35.567Z,20.80
2023-01-21T09:37:06.822Z,22.98
2023-01-21T09:39:38.298Z,18.27
2023-01-21T09:42:22.737Z,17.33
2023-01-21T09:44:56.381Z,22.65
2023-01-21T09:47:43.855Z,23.25
2023-01-21T09:50:19.487Z,16.40
2023-01-21T09:53:04.114Z,17.58
2023-01-21T09:55:42.932Z,17.80
2023-01-21T09:58:38.083Z,18.80
2023-01-21T10:01:18.147Z,15.18
2023-01-21T10:03:57.856Z,17.15
2023-01-21T10:06:36.618Z,13.98
2023-01-21T10:09:27.066Z,18.20
2023-01-21T10:12:00.375Z,22.65
2023-01-21T10:14:46.339Z,22.67
2023-01-21T10:17:42.698Z,17.15
2023-01-21T10:24:55.809Z,12.65
2023-01-21T10:27:27.604Z,12.80
2023-01-21T10:30:11.375Z,12.82
2023-01-21T10:32:43.302Z,13.02
2023-01-21T10:35:21.915Z,14.57
2023-01-21T10:38:03.509Z,14.57
2023-01-21T10:40:46.231Z,9.93
2023-01-21T10:43:33.626Z,9.70
2023-01-21T10:46:30.853Z,9.48
2023-01-21T10:49:33.856Z,11.10
2023-01-21T10:52:17.087Z,8.98
2023-01-21T10:55:08.506Z,9.05
2023-01-21T10:58:03.177Z,10.10
2023-01-21T11:00:44.510Z,9.55
2023-01-21T11:03:36.160Z,9.07
2023-01-21T11:06:10.636Z,8.38
2023-01-21T11:08:46.536Z,7.43
2023-01-21T11:11:24.995Z,8.27
2023-01-21T11:13:57.485Z,9.80
2023-01-21T11:16:40.757Z,8.98
2023-01-21T11:19:25.968Z,8.85
2023-01-21T11:22:14.784Z,9.25
2023-01-21T11:24:51.346Z,7.88
2023-01-21T11:27:36.743Z,9.05
2023-01-21T11:30:31.465Z,9.27
2023-01-21T11:33:27.670Z,9.00
2023-01-21T11:35:59.918Z,9.00
2023-01-21T11:38:37.562Z,8.15
2023-01-21T11:41:18.035Z,7.53
2023-01-21T11:43:55.844Z,8.43
2023-01-21T11:46:38.964Z,8.02
2023-01-21T11:49:09.640Z,6.47
2023-01-21T11:51:45.029Z,7.18
2023-01-21T11:54:27.515Z,7.38
2023-01-21T11:57:03.082Z,7.68
2023-01-21T11:59:55.290Z,7.25
2023-01-21T12:02:32.208Z,7.50
2023-01-21T12:05:14.283Z,8.07
2023-01-21T12:07:51.249Z,6.55
2023-01-21T12:10:33.875Z,9.25
2023-01-21T12:13:10.154Z,9.57
2023-01-21T12:16:10.789Z,9.65
2023-01-21T12:19:02.557Z,9.60
2023-01-21T12:22:09.507Z,9.27
2023-01-21T12:25:06.427Z,7.13
2023-01-21T12:27:54.215Z,6.88
2023-01-21T12:30:30.378Z,8.02
2023-01-21T12:33:17.248Z,8.55
2023-01-21T12:35:57.355Z,7.55
2023-01-21T12:38:47.512Z,9.02
2023-01-21T12:41:24.120Z,8.45
2023-01-21T12:44:35.092Z,8.50
2023-01-21T12:47:21.481Z,7.82
2023-01-21T12:50:03.946Z,8.82
2023-01-21T12:52:43.328Z,7.63
2023-01-21T12:55:21.555Z,8.23
2023-01-21T12:58:22.959Z,7.30
2023-01-21T13:01:03.699Z,7.55
2023-01-21T13:03:53.352Z,7.43
2023-01-21T13:06:53.109Z,8.35
2023-01-21T13:09:59.207Z,9.00
2023-01-21T13:12:33.900Z,9.25
2023-01-21T13:15:30.356Z,8.50
2023-01-21T13:18:30.329Z,6.93
2023-01-21T13:21:45.933Z,7.80
2023-01-21T13:24:39.154Z,8.95
2023-01-21T13:27:38.062Z,6.32
2023-01-21T13:30:37.811Z,5.75
2023-01-21T13:33:51.897Z,6.00
2023-01-21T13:36:49.980Z,5.60
2023-01-21T13:43:12.806Z,5.50
2023-01-21T13:46:19.951Z,5.10
2023-01-21T13:49:36.032Z,4.63
2023-01-21T13:55:45.684Z,4.20
2023-01-21T13:58:42.728Z,3.83
2023-01-21T14:01:34.310Z,5.22
2023-01-21T14:04:27.120Z,3.20
2023-01-21T14:07:29.688Z,4.47
2023-01-21T14:14:08.558Z,4.97
2023-01-21T14:16:55.102Z,5.90
2023-01-21T14:19:46.043Z,6.07
2023-01-21T14:22:16.042Z,5.70
2023-01-21T14:25:11.765Z,6.15
2023-01-21T14:27:50.931Z,5.80
2023-01-21T14:31:02.245Z,4.53
2023-01-21T14:34:03.355Z,5.22
2023-01-21T14:37:14.824Z,4.97
2023-01-21T14:40:08.190Z,4.75
2023-01-21T14:42:59.928Z,4.85
2023-01-21T14:45:57.521Z,5.25
2023-01-21T14:48:44.497Z,3.55
2023-01-21T14:51:50.594Z,4.28
2023-01-21T14:54:28.991Z,5.13
2023-01-21T14:57:18.268Z,4.32
2023-01-21T15:00:03.032Z,5.28
2023-01-21T15:03:14.349Z,4.55
2023-01-21T15:05:50.714Z,5.70
2023-01-21T15:08:29.775Z,4.85
2023-01-21T15:11:11.402Z,5.53
2023-01-21T15:13:44.821Z,5.65
2023-01-21T15:16:40.200Z,6.10
2023-01-21T15:19:14.977Z,5.18
2023-01-21T15:21:46.054Z,4.63
2023-01-21T15:27:51.058Z,5.78
2023-01-21T15:30:57.933Z,5.30
2023-01-21T15:33:47.811Z,5.93
2023-01-21T15:37:10.172Z,5.53
2023-01-21T15:39:42.348Z,6.40
2023-01-21T15:45:32.400Z,6.03
2023-01-21T15:48:36.421Z,5.85
2023-01-21T15:51:31.653Z,6.45
2023-01-21T15:54:27.785Z,5.95
2023-01-21T15:57:01.651Z,3.60
2023-01-21T16:00:07.480Z,3.10
2023-01-21T16:03:11.396Z,2.15
2023-01-21T16:06:20.491Z,2.00
2023-01-21T16:09:46.961Z,2.50
2023-01-21T16:13:01.708Z,9.00
2023-01-21T16:19:25.712Z,5.85
2023-01-21T16:25:20.634Z,6.55
2023-01-21T16:27:54.715Z,8.07
2023-01-21T16:30:45.826Z,5.57
2023-01-21T16:33:18.830Z,7.10
2023-01-21T16:35:56.356Z,5.88
2023-01-21T16:38:47.099Z,5.97
2023-01-21T16:41:45.294Z,7.35
2023-01-21T16:44:35.711Z,8.25
2023-01-21T16:47:10.483Z,9.50
2023-01-21T16:52:56.227Z,5.72
2023-01-21T16:55:49.920Z,5.65
2023-01-21T16:58:38.600Z,6.18
2023-01-21T17:04:42.363Z,9.35
2023-01-21T17:07:46.130Z,5.47
2023-01-21T17:10:34.824Z,5.07
2023-01-21T17:13:07.988Z,6.65
2023-01-21T17:19:41.378Z,5.93
2023-01-21T17:29:28.651Z,6.18
2023-01-21T17:32:06.634Z,4.90
2023-01-21T17:34:41.561Z,4.60
2023-01-21T17:37:53.826Z,6.13
2023-01-21T17:40:30.800Z,5.93
2023-01-21T17:43:14.903Z,6.05
2023-01-21T17:48:50.806Z,3.58
2023-01-21T17:51:48.430Z,3.72
2023-01-21T17:54:35.641Z,3.67
2023-01-21T17:57:30.118Z,5.63
2023-01-21T18:00:36.150Z,6.45
2023-01-21T18:09:59.593Z,4.15
2023-01-21T18:15:56.856Z,4.70
2023-01-21T18:27:37.365Z,6.72
2023-01-21T18:30:19.268Z,7.60
2023-01-21T18:32:54.763Z,6.18
2023-01-21T18:35:32.020Z,6.07
2023-01-21T18:38:33.451Z,5.78
2023-01-21T18:44:23.837Z,5.18
2023-01-21T18:47:00.873Z,6.18
2023-01-21T18:49:56.619Z,5.30
2023-01-21T18:52:28.245Z,5.72
2023-01-21T18:55:11.521Z,4.80
2023-01-21T18:57:53.043Z,5.57
2023-01-21T19:00:30.772Z,4.88
2023-01-21T19:03:09.101Z,5.20
2023-01-21T19:05:48.929Z,5.60
2023-01-21T19:08:31.757Z,5.70
2023-01-21T19:11:15.102Z,5.50
2023-01-21T19:13:57.182Z,6.00
2023-01-21T19:16:29.891Z,5.13
2023-01-21T19:19:05.023Z,6.45
2023-01-21T19:21:39.562Z,6.32
2023-01-21T19:24:17.748Z,7.35
2023-01-21T19:29:55.426Z,5.75
2023-01-21T19:32:27.068Z,6.88
2023-01-21T19:35:27.438Z,8.40
2023-01-21T19:38:43.917Z,7.00
2023-01-21T19:41:15.206Z,6.35
2023-01-21T19:43:52.119Z,6.97
2023-01-21T19:46:35.052Z,7.70
2023-01-21T19:49:26.114Z,6.80
2023-01-21T19:52:07.401Z,7.38
2023-01-21T19:54:48.463Z,7.35
2023-01-21T19:57:35.204Z,4.25
2023-01-21T20:00:30.246Z,5.53
2023-01-21T20:03:03.740Z,4.97
2023-01-21T20:05:40.138Z,5.35
2023-01-21T20:11:22.548Z,6.80
2023-01-21T20:14:17.633Z,6.32
2023-01-21T20:17:08.724Z,6.75
2023-01-21T20:19:51.069Z,5.65
2023-01-21T20:22:31.808Z,5.45
2023-01-21T20:25:06.376Z,6.35
2023-01-21T20:31:09.750Z,6.70
2023-01-21T20:39:45.614Z,7.97
2023-01-21T20:42:33.664Z,6.55
2023-01-21T20:48:15.331Z,7.90
2023-01-21T20:51:23.265Z,6.47
2023-01-21T20:54:06.746Z,4.72
2023-01-21T20:57:01.387Z,6.78
2023-01-21T20:59:44.015Z,9.30
2023-01-21T21:02:20.403Z,6.47
2023-01-21T21:07:46.707Z,3.65
2023-01-21T21:10:33.435Z,3.78
2023-01-21T21:13:21.726Z,3.63
2023-01-21T21:15:59.885Z,4.15
2023-01-21T21:18:47.305Z,2.60
2023-01-21T21:21:43.431Z,3.63
2023-01-21T21:24:14.630Z,2.35
2023-01-21T21:26:46.688Z,0.95
2023-01-21T21:29:18.629Z,0.50
2023-01-21T21:31:49.757Z,0.63
2023-01-21T21:34:27.921Z,0.95
2023-01-21T21:36:58.204Z,0.73
2023-01-21T21:39:30.711Z,1.75
2023-01-21T21:42:20.419Z,2.97
2023-01-21T21:44:52.131Z,7.53
2023-01-21T21:47:43.600Z,5.50
2023-01-21T21:50:15.087Z,5.88
2023-01-21T21:52:46.326Z,7.90
2023-01-21T21:55:21.432Z,9.75
2023-01-21T22:00:25.830Z,5.45
2023-01-21T22:03:04.668Z,4.75
2023-01-21T22:05:36.960Z,2.72
2023-01-21T22:08:12.299Z,1.95
2023-01-21T22:10:47.040Z,1.05
2023-01-21T22:13:19.298Z,0.90
2023-01-21T22:16:03.933Z,1.00
2023-01-21T22:18:34.932Z,1.10
2023-01-21T22:21:17.776Z,0.90
2023-01-21T22:23:50.088Z,0.80
2023-01-21T22:26:26.414Z,0.80
2023-01-21T22:28:59.935Z,0.90
2023-01-21T22:31:35.345Z,1.00
2023-01-21T22:34:11.678Z,1.90
2023-01-21T22:36:49.192Z,2.75
2023-01-21T22:39:48.234Z,1.40
2023-01-21T22:42:38.616Z,1.50
2023-01-21T22:45:26.448Z,1.50
2023-01-21T22:48:16.892Z,2.30
2023-01-21T22:50:55.157Z,1.67
2023-01-21T22:53:31.315Z,1.52
2023-01-21T22:56:09.373Z,1.85
2023-01-21T22:58:39.636Z,2.03
2023-01-21T23:01:33.191Z,1.55
2023-01-21T23:04:04.441Z,12.40
2023-01-21T23:06:37.693Z,12.45
2023-01-21T23:09:11.753Z,16.15
2023-01-21T23:11:43.587Z,11.73
2023-01-21T23:14:14.633Z,9.63
2023-01-21T23:16:47.537Z,8.75
2023-01-21T23:19:19.689Z,8.30
2023-01-21T23:21:51.460Z,10.13
2023-01-21T23:24:21.891Z,10.52
2023-01-21T23:26:57.077Z,11.32
2023-01-21T23:29:27.856Z,12.02
2023-01-21T23:32:01.922Z,10.57
2023-01-21T23:34:32.623Z,9.88
2023-01-21T23:37:02.917Z,11.20
2023-01-21T23:39:34.963Z,15.00
2023-01-21T23:42:07.786Z,13.88
2023-01-21T23:44:41.573Z,13.45
2023-01-21T23:47:13.907Z,12.65
2023-01-21T23:49:44.410Z,15.70
2023-01-21T23:52:14.866Z,14.00
2023-01-21T23:54:47.920Z,17.38
2023-01-21T23:57:21.289Z,21.65
2023-01-21T23:59:52.738Z,16.77
